FFT2494 KDFW-KATL
Flight info
| Callsign | FFT2494 |
|---|---|
| Flight time | 1h 32m |
| Altitude | 37000 |
| Route | FORCK3 FORCK ELD MERDN ORRKK HOBTT2 |
| Aircraft | A321/M-SDE3FGHIRWY/LB1 |
Departure
| Time | 2026-05-07 13:25 |
|---|---|
| Airport | Dallas Fort Worth International Airport (KDFW) |
Arrival
| Time | 2026-05-07 14:58 |
|---|---|
| Airport | Hartsfield Jackson Atlanta International Airport (KATL) |
| Time | Latitude | Longitude | Altitude | Speed | Heading |
|---|---|---|---|---|---|
| 2026-05-07 12:49 | 32.88869 | -97.03539 | 628 ft | 0 kts | 300° |
| 2026-05-07 12:49 | 32.88869 | -97.03540 | 628 ft | 0 kts | 300° |
| 2026-05-07 13:12 | 32.88869 | -97.03539 | 597 ft | 0 kts | 300° |
| 2026-05-07 13:17 | 32.88865 | -97.03533 | 628 ft | 2 kts | 296° |
| 2026-05-07 13:17 | 32.88860 | -97.03513 | 632 ft | 3 kts | 262° |
| 2026-05-07 13:17 | 32.88866 | -97.03493 | 629 ft | 3 kts | 219° |
| 2026-05-07 13:17 | 32.88880 | -97.03483 | 628 ft | 3 kts | 205° |
| 2026-05-07 13:18 | 32.88897 | -97.03474 | 630 ft | 2 kts | 204° |
| 2026-05-07 13:18 | 32.88899 | -97.03472 | 630 ft | 1 kts | 204° |
| 2026-05-07 13:22 | 32.88882 | -97.03482 | 630 ft | 9 kts | 205° |
| 2026-05-07 13:22 | 32.88792 | -97.03550 | 622 ft | 21 kts | 213° |
| 2026-05-07 13:22 | 32.88669 | -97.03565 | 621 ft | 22 kts | 168° |
| 2026-05-07 13:22 | 32.88603 | -97.03548 | 618 ft | 6 kts | 124° |
| 2026-05-07 13:23 | 32.88599 | -97.03446 | 616 ft | 22 kts | 91° |
| 2026-05-07 13:23 | 32.88595 | -97.03267 | 616 ft | 20 kts | 89° |
| 2026-05-07 13:23 | 32.88597 | -97.03106 | 616 ft | 19 kts | 90° |
| 2026-05-07 13:23 | 32.88647 | -97.03004 | 616 ft | 15 kts | 9° |
| 2026-05-07 13:24 | 32.88689 | -97.03003 | 623 ft | 0 kts | 0° |
| 2026-05-07 13:24 | 32.88696 | -97.03003 | 626 ft | 6 kts | 360° |
| 2026-05-07 13:24 | 32.88974 | -97.03004 | 623 ft | 76 kts | 0° |
| 2026-05-07 13:24 | 32.89711 | -97.03001 | 621 ft | 133 kts | 0° |
| 2026-05-07 13:25 | 32.90775 | -97.02996 | 678 ft | 168 kts | 0° |
| 2026-05-07 13:25 | 32.91931 | -97.02983 | 1380 ft | 161 kts | 1° |
| 2026-05-07 13:25 | 32.93028 | -97.02733 | 2013 ft | 163 kts | 17° |
| 2026-05-07 13:25 | 32.94139 | -97.02366 | 2459 ft | 172 kts | 17° |
| 2026-05-07 13:26 | 32.95363 | -97.01959 | 2626 ft | 195 kts | 17° |
| 2026-05-07 13:26 | 32.96744 | -97.01502 | 2800 ft | 219 kts | 16° |
| 2026-05-07 13:26 | 32.98298 | -97.00987 | 3097 ft | 243 kts | 16° |
| 2026-05-07 13:26 | 32.99958 | -97.00428 | 3862 ft | 251 kts | 18° |
| 2026-05-07 13:27 | 33.01387 | -96.99369 | 4658 ft | 258 kts | 48° |
| 2026-05-07 13:27 | 33.02132 | -96.97395 | 5450 ft | 271 kts | 79° |
| 2026-05-07 13:27 | 33.02176 | -96.95100 | 6156 ft | 283 kts | 94° |
| 2026-05-07 13:27 | 33.01907 | -96.92740 | 6838 ft | 292 kts | 100° |
| 2026-05-07 13:28 | 33.01549 | -96.90364 | 7528 ft | 298 kts | 100° |
| 2026-05-07 13:28 | 33.01203 | -96.87901 | 8251 ft | 304 kts | 100° |
| 2026-05-07 13:28 | 33.00624 | -96.85459 | 8970 ft | 309 kts | 113° |
| 2026-05-07 13:28 | 32.99667 | -96.83106 | 9704 ft | 315 kts | 117° |
| 2026-05-07 13:29 | 32.98709 | -96.80773 | 10335 ft | 323 kts | 117° |
| 2026-05-07 13:29 | 32.97706 | -96.78272 | 10554 ft | 346 kts | 117° |
| 2026-05-07 13:29 | 32.96653 | -96.75610 | 10926 ft | 360 kts | 117° |
| 2026-05-07 13:29 | 32.95576 | -96.72878 | 11528 ft | 367 kts | 117° |
| 2026-05-07 13:30 | 32.94477 | -96.70100 | 12159 ft | 374 kts | 118° |
| 2026-05-07 13:30 | 32.93737 | -96.68235 | 12573 ft | 378 kts | 118° |
| 2026-05-07 13:30 | 32.92603 | -96.65387 | 13204 ft | 384 kts | 118° |
| 2026-05-07 13:30 | 32.91443 | -96.62489 | 13828 ft | 391 kts | 119° |
| 2026-05-07 13:31 | 32.90264 | -96.59550 | 14402 ft | 397 kts | 119° |
| 2026-05-07 13:31 | 32.89063 | -96.56565 | 14983 ft | 402 kts | 120° |
| 2026-05-07 13:31 | 32.87850 | -96.53555 | 15575 ft | 406 kts | 120° |
| 2026-05-07 13:31 | 32.86619 | -96.50505 | 16157 ft | 411 kts | 120° |
| 2026-05-07 13:32 | 32.85375 | -96.47423 | 16728 ft | 416 kts | 120° |
| 2026-05-07 13:32 | 32.84117 | -96.44304 | 17322 ft | 420 kts | 121° |
| 2026-05-07 13:32 | 32.82846 | -96.41150 | 17900 ft | 425 kts | 121° |
| 2026-05-07 13:32 | 32.81575 | -96.37954 | 18470 ft | 431 kts | 118° |
| 2026-05-07 13:33 | 32.80630 | -96.34529 | 18946 ft | 441 kts | 106° |
| 2026-05-07 13:33 | 32.80207 | -96.30885 | 19431 ft | 449 kts | 94° |
| 2026-05-07 13:33 | 32.80341 | -96.27168 | 19912 ft | 453 kts | 82° |
| 2026-05-07 13:33 | 32.80750 | -96.23432 | 20387 ft | 457 kts | 82° |
| 2026-05-07 13:34 | 32.81152 | -96.19668 | 20862 ft | 461 kts | 83° |
| 2026-05-07 13:34 | 32.81938 | -96.12027 | 21799 ft | 470 kts | 83° |
| 2026-05-07 13:34 | 32.82332 | -96.08161 | 22249 ft | 474 kts | 83° |
| 2026-05-07 13:35 | 32.82730 | -96.04242 | 22672 ft | 479 kts | 83° |
| 2026-05-07 13:35 | 32.83130 | -96.00291 | 23099 ft | 483 kts | 83° |
| 2026-05-07 13:35 | 32.83529 | -95.96360 | 23521 ft | 487 kts | 83° |
| 2026-05-07 13:35 | 32.83936 | -95.92354 | 23903 ft | 490 kts | 83° |
| 2026-05-07 13:36 | 32.84347 | -95.88302 | 24249 ft | 494 kts | 84° |
| 2026-05-07 13:36 | 32.84761 | -95.84231 | 24616 ft | 497 kts | 84° |
| 2026-05-07 13:36 | 32.85180 | -95.80138 | 24974 ft | 500 kts | 84° |
| 2026-05-07 13:36 | 32.85599 | -95.76017 | 25330 ft | 503 kts | 84° |
| 2026-05-07 13:37 | 32.86016 | -95.71875 | 25684 ft | 506 kts | 84° |
| 2026-05-07 13:37 | 32.86429 | -95.67705 | 26011 ft | 510 kts | 84° |
| 2026-05-07 13:37 | 32.86846 | -95.63500 | 26345 ft | 513 kts | 84° |
| 2026-05-07 13:37 | 32.87266 | -95.59272 | 26703 ft | 516 kts | 84° |
| 2026-05-07 13:38 | 32.87688 | -95.55023 | 27040 ft | 519 kts | 85° |
| 2026-05-07 13:38 | 32.88113 | -95.50747 | 27375 ft | 522 kts | 85° |
| 2026-05-07 13:38 | 32.88539 | -95.46443 | 27708 ft | 525 kts | 85° |
| 2026-05-07 13:38 | 32.88965 | -95.42118 | 28038 ft | 528 kts | 85° |
| 2026-05-07 13:39 | 32.89389 | -95.37759 | 28364 ft | 531 kts | 85° |
| 2026-05-07 13:39 | 32.89808 | -95.33386 | 28681 ft | 534 kts | 85° |
| 2026-05-07 13:39 | 32.90230 | -95.28977 | 28970 ft | 537 kts | 85° |
| 2026-05-07 13:39 | 32.90653 | -95.24549 | 29268 ft | 540 kts | 85° |
| 2026-05-07 13:40 | 32.91076 | -95.20095 | 29574 ft | 543 kts | 85° |
| 2026-05-07 13:40 | 32.91501 | -95.15617 | 29875 ft | 546 kts | 85° |
| 2026-05-07 13:40 | 32.91930 | -95.11121 | 30168 ft | 548 kts | 86° |
| 2026-05-07 13:40 | 32.92363 | -95.06598 | 30426 ft | 551 kts | 86° |
| 2026-05-07 13:41 | 32.92798 | -95.02053 | 30680 ft | 553 kts | 86° |
| 2026-05-07 13:41 | 32.93225 | -94.97555 | 30926 ft | 555 kts | 86° |
| 2026-05-07 13:41 | 32.93658 | -94.92978 | 31166 ft | 557 kts | 86° |
| 2026-05-07 13:41 | 32.94090 | -94.88382 | 31408 ft | 560 kts | 86° |
| 2026-05-07 13:42 | 32.94521 | -94.83774 | 31671 ft | 561 kts | 86° |
| 2026-05-07 13:42 | 32.94948 | -94.79161 | 32028 ft | 560 kts | 86° |
| 2026-05-07 13:42 | 32.95374 | -94.74549 | 32374 ft | 560 kts | 86° |
| 2026-05-07 13:42 | 32.95799 | -94.69946 | 32713 ft | 559 kts | 86° |
| 2026-05-07 13:43 | 32.96218 | -94.65341 | 33045 ft | 559 kts | 87° |
| 2026-05-07 13:43 | 32.96634 | -94.60747 | 33380 ft | 559 kts | 87° |
| 2026-05-07 13:43 | 32.97050 | -94.56144 | 33730 ft | 558 kts | 87° |
| 2026-05-07 13:43 | 32.97463 | -94.51548 | 34055 ft | 558 kts | 87° |
| 2026-05-07 13:44 | 32.97878 | -94.46942 | 34349 ft | 558 kts | 87° |
| 2026-05-07 13:44 | 32.98292 | -94.42356 | 34621 ft | 558 kts | 87° |
| 2026-05-07 13:44 | 32.98705 | -94.37759 | 34884 ft | 558 kts | 87° |
| 2026-05-07 13:44 | 32.99108 | -94.33233 | 35142 ft | 558 kts | 87° |
| 2026-05-07 13:45 | 32.99522 | -94.28572 | 35392 ft | 558 kts | 86° |
| 2026-05-07 13:45 | 33.00164 | -94.24068 | 35628 ft | 560 kts | 79° |
| 2026-05-07 13:45 | 33.00967 | -94.19522 | 35870 ft | 561 kts | 79° |
| 2026-05-07 13:45 | 33.01768 | -94.14971 | 36150 ft | 560 kts | 79° |
| 2026-05-07 13:46 | 33.02567 | -94.10433 | 36408 ft | 559 kts | 79° |
| 2026-05-07 13:46 | 33.03363 | -94.05900 | 36647 ft | 559 kts | 79° |
| 2026-05-07 13:46 | 33.04159 | -94.01358 | 36870 ft | 559 kts | 79° |
| 2026-05-07 13:46 | 33.04954 | -93.96814 | 37075 ft | 560 kts | 79° |
| 2026-05-07 13:47 | 33.05746 | -93.92265 | 37135 ft | 558 kts | 79° |
| 2026-05-07 13:47 | 33.06949 | -93.85320 | 37139 ft | 555 kts | 79° |
| 2026-05-07 13:48 | 33.08466 | -93.76529 | 37133 ft | 554 kts | 79° |
| 2026-05-07 13:48 | 33.10016 | -93.67522 | 37135 ft | 554 kts | 79° |
| 2026-05-07 13:49 | 33.11551 | -93.58557 | 37116 ft | 556 kts | 79° |
| 2026-05-07 13:49 | 33.13094 | -93.49511 | 37120 ft | 557 kts | 79° |
| 2026-05-07 13:50 | 33.14632 | -93.40449 | 37126 ft | 557 kts | 79° |
| 2026-05-07 13:50 | 33.16163 | -93.31380 | 37134 ft | 558 kts | 80° |
| 2026-05-07 13:51 | 33.17688 | -93.22302 | 37140 ft | 558 kts | 80° |
| 2026-05-07 13:51 | 33.19205 | -93.13216 | 37141 ft | 558 kts | 80° |
| 2026-05-07 13:52 | 33.20715 | -93.04124 | 37135 ft | 558 kts | 80° |
| 2026-05-07 13:52 | 33.22225 | -92.95032 | 37137 ft | 558 kts | 80° |
| 2026-05-07 13:53 | 33.23727 | -92.85939 | 37135 ft | 558 kts | 80° |
| 2026-05-07 13:53 | 33.24884 | -92.76796 | 37158 ft | 554 kts | 92° |
| 2026-05-07 13:54 | 33.24242 | -92.67744 | 37154 ft | 541 kts | 110° |
| 2026-05-07 13:54 | 33.22458 | -92.59063 | 37146 ft | 538 kts | 111° |
| 2026-05-07 13:55 | 33.20664 | -92.50374 | 37133 ft | 538 kts | 111° |
| 2026-05-07 13:55 | 33.18873 | -92.41690 | 37123 ft | 538 kts | 111° |
| 2026-05-07 13:56 | 33.17069 | -92.33018 | 37128 ft | 538 kts | 111° |
| 2026-05-07 13:56 | 33.15251 | -92.24351 | 37122 ft | 538 kts | 111° |
| 2026-05-07 13:57 | 33.13430 | -92.15681 | 37076 ft | 538 kts | 111° |
| 2026-05-07 13:57 | 33.11611 | -92.07028 | 37113 ft | 538 kts | 111° |
| 2026-05-07 13:58 | 33.09782 | -91.98388 | 37126 ft | 537 kts | 111° |
| 2026-05-07 13:58 | 33.07951 | -91.89820 | 37108 ft | 536 kts | 111° |
| 2026-05-07 13:59 | 33.06120 | -91.81199 | 37116 ft | 537 kts | 111° |
| 2026-05-07 13:59 | 33.04287 | -91.72574 | 37120 ft | 536 kts | 111° |
| 2026-05-07 14:00 | 33.02442 | -91.63965 | 37118 ft | 536 kts | 111° |
| 2026-05-07 14:00 | 33.00581 | -91.55356 | 37120 ft | 536 kts | 111° |
| 2026-05-07 14:01 | 32.98715 | -91.46777 | 37107 ft | 535 kts | 111° |
| 2026-05-07 14:01 | 32.96851 | -91.38188 | 37090 ft | 535 kts | 111° |
| 2026-05-07 14:02 | 32.94994 | -91.29607 | 37078 ft | 535 kts | 111° |
| 2026-05-07 14:02 | 32.93128 | -91.21026 | 37068 ft | 535 kts | 111° |
| 2026-05-07 14:03 | 32.91245 | -91.12450 | 37043 ft | 535 kts | 112° |
| 2026-05-07 14:03 | 32.89376 | -91.03949 | 37065 ft | 535 kts | 112° |
| 2026-05-07 14:04 | 32.87490 | -90.95400 | 37063 ft | 533 kts | 112° |
| 2026-05-07 14:04 | 32.85602 | -90.86879 | 37111 ft | 532 kts | 112° |
| 2026-05-07 14:05 | 32.83713 | -90.78375 | 37114 ft | 531 kts | 112° |
| 2026-05-07 14:05 | 32.81824 | -90.69901 | 37095 ft | 530 kts | 112° |
| 2026-05-07 14:06 | 32.79931 | -90.61431 | 37100 ft | 530 kts | 112° |
| 2026-05-07 14:06 | 32.78032 | -90.52975 | 37087 ft | 529 kts | 112° |
| 2026-05-07 14:07 | 32.76126 | -90.44539 | 37071 ft | 529 kts | 112° |
| 2026-05-07 14:07 | 32.74213 | -90.36104 | 37049 ft | 528 kts | 112° |
| 2026-05-07 14:08 | 32.72296 | -90.27691 | 37045 ft | 528 kts | 112° |
| 2026-05-07 14:08 | 32.70387 | -90.19275 | 37056 ft | 528 kts | 112° |
| 2026-05-07 14:09 | 32.68481 | -90.10870 | 37061 ft | 528 kts | 112° |
| 2026-05-07 14:09 | 32.66571 | -90.02516 | 37064 ft | 527 kts | 112° |
| 2026-05-07 14:10 | 32.64632 | -89.94122 | 37009 ft | 528 kts | 112° |
| 2026-05-07 14:10 | 32.62688 | -89.85727 | 37012 ft | 527 kts | 112° |
| 2026-05-07 14:11 | 32.60744 | -89.77344 | 36999 ft | 526 kts | 112° |
| 2026-05-07 14:11 | 32.58804 | -89.68996 | 37000 ft | 525 kts | 112° |
| 2026-05-07 14:12 | 32.56870 | -89.60663 | 37003 ft | 524 kts | 112° |
| 2026-05-07 14:12 | 32.54936 | -89.52352 | 36979 ft | 522 kts | 112° |
| 2026-05-07 14:13 | 32.53001 | -89.44119 | 36978 ft | 522 kts | 112° |
| 2026-05-07 14:13 | 32.51044 | -89.35846 | 36957 ft | 521 kts | 112° |
| 2026-05-07 14:14 | 32.49094 | -89.27572 | 36980 ft | 521 kts | 112° |
| 2026-05-07 14:14 | 32.47142 | -89.19310 | 36953 ft | 521 kts | 112° |
| 2026-05-07 14:15 | 32.45186 | -89.11061 | 36945 ft | 520 kts | 112° |
| 2026-05-07 14:15 | 32.43219 | -89.02812 | 36925 ft | 520 kts | 112° |
| 2026-05-07 14:16 | 32.41250 | -88.94569 | 36930 ft | 520 kts | 112° |
| 2026-05-07 14:16 | 32.39311 | -88.86312 | 36959 ft | 523 kts | 108° |
| 2026-05-07 14:17 | 32.38720 | -88.77660 | 36992 ft | 534 kts | 88° |
| 2026-05-07 14:17 | 32.40052 | -88.69061 | 37014 ft | 536 kts | 77° |
| 2026-05-07 14:18 | 32.41725 | -88.60471 | 37048 ft | 536 kts | 78° |
| 2026-05-07 14:18 | 32.43360 | -88.51850 | 37059 ft | 536 kts | 78° |
| 2026-05-07 14:19 | 32.44990 | -88.43237 | 37043 ft | 536 kts | 78° |
| 2026-05-07 14:19 | 32.46353 | -88.36083 | 37040 ft | 535 kts | 78° |
| 2026-05-07 14:20 | 32.47992 | -88.27489 | 37010 ft | 535 kts | 78° |
| 2026-05-07 14:20 | 32.49617 | -88.18903 | 36974 ft | 534 kts | 78° |
| 2026-05-07 14:21 | 32.51233 | -88.10316 | 36949 ft | 534 kts | 78° |
| 2026-05-07 14:21 | 32.52836 | -88.01731 | 36945 ft | 533 kts | 78° |
| 2026-05-07 14:22 | 32.54704 | -87.91712 | 36949 ft | 533 kts | 78° |
| 2026-05-07 14:22 | 32.56051 | -87.84585 | 36950 ft | 533 kts | 78° |
| 2026-05-07 14:23 | 32.57669 | -87.76020 | 36952 ft | 533 kts | 78° |
| 2026-05-07 14:23 | 32.59270 | -87.67432 | 36951 ft | 533 kts | 78° |
| 2026-05-07 14:24 | 32.60850 | -87.58908 | 36963 ft | 533 kts | 78° |
| 2026-05-07 14:24 | 32.62449 | -87.50314 | 36951 ft | 534 kts | 78° |
| 2026-05-07 14:25 | 32.64050 | -87.41709 | 36944 ft | 534 kts | 78° |
| 2026-05-07 14:25 | 32.65631 | -87.33092 | 36941 ft | 535 kts | 78° |
| 2026-05-07 14:26 | 32.67201 | -87.24468 | 36913 ft | 534 kts | 79° |
| 2026-05-07 14:26 | 32.68769 | -87.15860 | 36929 ft | 533 kts | 79° |
| 2026-05-07 14:27 | 32.70335 | -87.07258 | 36934 ft | 533 kts | 79° |
| 2026-05-07 14:27 | 32.71898 | -86.98641 | 36934 ft | 533 kts | 79° |
| 2026-05-07 14:28 | 32.73435 | -86.90088 | 36934 ft | 533 kts | 79° |
| 2026-05-07 14:28 | 32.74967 | -86.81471 | 36942 ft | 533 kts | 79° |
| 2026-05-07 14:29 | 32.76503 | -86.72852 | 36964 ft | 533 kts | 79° |
| 2026-05-07 14:29 | 32.78052 | -86.64231 | 36992 ft | 533 kts | 79° |
| 2026-05-07 14:30 | 32.79583 | -86.55605 | 36877 ft | 534 kts | 79° |
| 2026-05-07 14:30 | 32.80348 | -86.51282 | 35622 ft | 537 kts | 80° |
| 2026-05-07 14:30 | 32.81114 | -86.46920 | 34563 ft | 535 kts | 80° |
| 2026-05-07 14:30 | 32.81859 | -86.42684 | 34358 ft | 510 kts | 81° |
| 2026-05-07 14:31 | 32.82580 | -86.38603 | 33477 ft | 503 kts | 81° |
| 2026-05-07 14:31 | 32.83294 | -86.34531 | 32503 ft | 500 kts | 80° |
| 2026-05-07 14:31 | 32.83989 | -86.30551 | 32312 ft | 488 kts | 80° |
| 2026-05-07 14:31 | 32.84681 | -86.26578 | 32012 ft | 492 kts | 80° |
| 2026-05-07 14:32 | 32.85371 | -86.22597 | 31868 ft | 493 kts | 80° |
| 2026-05-07 14:32 | 32.86068 | -86.18552 | 31428 ft | 502 kts | 80° |
| 2026-05-07 14:32 | 32.86757 | -86.14550 | 30881 ft | 499 kts | 80° |
| 2026-05-07 14:32 | 32.87453 | -86.10509 | 30356 ft | 496 kts | 79° |
| 2026-05-07 14:33 | 32.88146 | -86.06508 | 29800 ft | 492 kts | 79° |
| 2026-05-07 14:33 | 32.88830 | -86.02540 | 29280 ft | 488 kts | 79° |
| 2026-05-07 14:33 | 32.89508 | -85.98598 | 28769 ft | 485 kts | 79° |
| 2026-05-07 14:33 | 32.90177 | -85.94684 | 28256 ft | 481 kts | 79° |
| 2026-05-07 14:34 | 32.90841 | -85.90801 | 27749 ft | 477 kts | 79° |
| 2026-05-07 14:34 | 32.91501 | -85.86945 | 27257 ft | 474 kts | 79° |
| 2026-05-07 14:34 | 32.92157 | -85.83120 | 26766 ft | 470 kts | 79° |
| 2026-05-07 14:34 | 32.92805 | -85.79321 | 26299 ft | 467 kts | 79° |
| 2026-05-07 14:35 | 32.93450 | -85.75546 | 25828 ft | 463 kts | 79° |
| 2026-05-07 14:35 | 32.94091 | -85.71796 | 25373 ft | 460 kts | 79° |
| 2026-05-07 14:35 | 32.94723 | -85.68077 | 24924 ft | 457 kts | 79° |
| 2026-05-07 14:35 | 32.95347 | -85.64375 | 24479 ft | 454 kts | 79° |
| 2026-05-07 14:36 | 32.95964 | -85.60683 | 24031 ft | 455 kts | 79° |
| 2026-05-07 14:36 | 32.96580 | -85.56989 | 23570 ft | 455 kts | 79° |
| 2026-05-07 14:36 | 32.97197 | -85.53297 | 23060 ft | 454 kts | 78° |
| 2026-05-07 14:36 | 32.97815 | -85.49613 | 22604 ft | 452 kts | 78° |
| 2026-05-07 14:37 | 32.98431 | -85.45954 | 22131 ft | 450 kts | 78° |
| 2026-05-07 14:37 | 32.99651 | -85.38681 | 21183 ft | 446 kts | 78° |
| 2026-05-07 14:37 | 33.00254 | -85.35063 | 20709 ft | 445 kts | 78° |
| 2026-05-07 14:38 | 33.00845 | -85.31502 | 20235 ft | 444 kts | 78° |
| 2026-05-07 14:38 | 33.01438 | -85.27901 | 19778 ft | 443 kts | 77° |
| 2026-05-07 14:38 | 33.02223 | -85.24371 | 19296 ft | 439 kts | 65° |
| 2026-05-07 14:38 | 33.03555 | -85.21141 | 18823 ft | 431 kts | 51° |
| 2026-05-07 14:39 | 33.05351 | -85.18346 | 18320 ft | 419 kts | 39° |
| 2026-05-07 14:39 | 33.07326 | -85.15805 | 17842 ft | 418 kts | 39° |
| 2026-05-07 14:39 | 33.09299 | -85.13258 | 17370 ft | 416 kts | 39° |
| 2026-05-07 14:39 | 33.11255 | -85.10723 | 16906 ft | 414 kts | 40° |
| 2026-05-07 14:40 | 33.13201 | -85.08194 | 16462 ft | 412 kts | 40° |
| 2026-05-07 14:40 | 33.15134 | -85.05683 | 16017 ft | 411 kts | 40° |
| 2026-05-07 14:40 | 33.17065 | -85.03167 | 15574 ft | 409 kts | 40° |
| 2026-05-07 14:40 | 33.18980 | -85.00673 | 15134 ft | 407 kts | 40° |
| 2026-05-07 14:41 | 33.20890 | -84.98194 | 14661 ft | 406 kts | 41° |
| 2026-05-07 14:41 | 33.22795 | -84.95716 | 14260 ft | 403 kts | 41° |
| 2026-05-07 14:41 | 33.24684 | -84.93255 | 13815 ft | 400 kts | 41° |
| 2026-05-07 14:41 | 33.26560 | -84.90807 | 13336 ft | 398 kts | 41° |
| 2026-05-07 14:42 | 33.28415 | -84.88382 | 12882 ft | 394 kts | 42° |
| 2026-05-07 14:42 | 33.30260 | -84.85968 | 12429 ft | 391 kts | 42° |
| 2026-05-07 14:42 | 33.32227 | -84.83793 | 11976 ft | 379 kts | 29° |
| 2026-05-07 14:42 | 33.34435 | -84.82251 | 11851 ft | 357 kts | 19° |
| 2026-05-07 14:43 | 33.36628 | -84.80905 | 11989 ft | 353 kts | 19° |
| 2026-05-07 14:43 | 33.38806 | -84.79562 | 12025 ft | 352 kts | 19° |
| 2026-05-07 14:43 | 33.40958 | -84.78234 | 12023 ft | 352 kts | 19° |
| 2026-05-07 14:43 | 33.43133 | -84.76879 | 12020 ft | 352 kts | 20° |
| 2026-05-07 14:44 | 33.45195 | -84.75158 | 12015 ft | 365 kts | 39° |
| 2026-05-07 14:44 | 33.46709 | -84.72724 | 12015 ft | 374 kts | 55° |
| 2026-05-07 14:44 | 33.48038 | -84.70037 | 11995 ft | 375 kts | 56° |
| 2026-05-07 14:44 | 33.49351 | -84.67342 | 12000 ft | 375 kts | 56° |
| 2026-05-07 14:45 | 33.50662 | -84.64646 | 11995 ft | 374 kts | 56° |
| 2026-05-07 14:45 | 33.51965 | -84.61954 | 11993 ft | 374 kts | 58° |
| 2026-05-07 14:45 | 33.52992 | -84.59076 | 11994 ft | 378 kts | 70° |
| 2026-05-07 14:45 | 33.53574 | -84.56007 | 11820 ft | 377 kts | 82° |
| 2026-05-07 14:46 | 33.53699 | -84.52883 | 11425 ft | 374 kts | 91° |
| 2026-05-07 14:46 | 33.53691 | -84.49770 | 11044 ft | 371 kts | 91° |
| 2026-05-07 14:46 | 33.53685 | -84.46692 | 10682 ft | 368 kts | 90° |
| 2026-05-07 14:46 | 33.53682 | -84.43638 | 10317 ft | 364 kts | 90° |
| 2026-05-07 14:47 | 33.53684 | -84.40616 | 9969 ft | 360 kts | 90° |
| 2026-05-07 14:47 | 33.53689 | -84.37658 | 9838 ft | 349 kts | 90° |
| 2026-05-07 14:47 | 33.53692 | -84.34798 | 9699 ft | 339 kts | 90° |
| 2026-05-07 14:47 | 33.53693 | -84.32002 | 9374 ft | 334 kts | 91° |
| 2026-05-07 14:48 | 33.53693 | -84.29225 | 9010 ft | 331 kts | 91° |
| 2026-05-07 14:48 | 33.53695 | -84.26483 | 8652 ft | 328 kts | 91° |
| 2026-05-07 14:48 | 33.53699 | -84.23765 | 8293 ft | 325 kts | 91° |
| 2026-05-07 14:48 | 33.53703 | -84.21061 | 7946 ft | 323 kts | 90° |
| 2026-05-07 14:49 | 33.53704 | -84.18377 | 7615 ft | 321 kts | 91° |
| 2026-05-07 14:49 | 33.53703 | -84.15711 | 7282 ft | 319 kts | 91° |
| 2026-05-07 14:49 | 33.53704 | -84.13098 | 6916 ft | 318 kts | 90° |
| 2026-05-07 14:49 | 33.54013 | -84.10498 | 6588 ft | 313 kts | 68° |
| 2026-05-07 14:50 | 33.55124 | -84.08316 | 6246 ft | 304 kts | 41° |
| 2026-05-07 14:50 | 33.56835 | -84.06966 | 5996 ft | 291 kts | 12° |
| 2026-05-07 14:50 | 33.58759 | -84.06660 | 5984 ft | 273 kts | 345° |
| 2026-05-07 14:50 | 33.60522 | -84.07251 | 5949 ft | 259 kts | 324° |
| 2026-05-07 14:51 | 33.61908 | -84.08490 | 5785 ft | 239 kts | 305° |
| 2026-05-07 14:51 | 33.62769 | -84.10083 | 5650 ft | 222 kts | 287° |
| 2026-05-07 14:51 | 33.63129 | -84.11816 | 5530 ft | 208 kts | 270° |
| 2026-05-07 14:51 | 33.63138 | -84.13476 | 5436 ft | 192 kts | 268° |
| 2026-05-07 14:52 | 33.63147 | -84.15044 | 5226 ft | 184 kts | 267° |
| 2026-05-07 14:52 | 33.63153 | -84.16553 | 5011 ft | 176 kts | 266° |
| 2026-05-07 14:52 | 33.63158 | -84.17968 | 4811 ft | 165 kts | 267° |
| 2026-05-07 14:52 | 33.63160 | -84.19324 | 4589 ft | 161 kts | 267° |
| 2026-05-07 14:53 | 33.63162 | -84.20676 | 4388 ft | 162 kts | 268° |
| 2026-05-07 14:53 | 33.63164 | -84.22029 | 4196 ft | 162 kts | 268° |
| 2026-05-07 14:53 | 33.63166 | -84.23361 | 3972 ft | 164 kts | 267° |
| 2026-05-07 14:53 | 33.63168 | -84.24732 | 3755 ft | 165 kts | 268° |
| 2026-05-07 14:54 | 33.63170 | -84.26105 | 3541 ft | 165 kts | 268° |
| 2026-05-07 14:54 | 33.63172 | -84.27490 | 3333 ft | 165 kts | 267° |
| 2026-05-07 14:54 | 33.63174 | -84.28831 | 3113 ft | 153 kts | 267° |
| 2026-05-07 14:54 | 33.63176 | -84.30050 | 2918 ft | 141 kts | 270° |
| 2026-05-07 14:55 | 33.63177 | -84.31204 | 2740 ft | 137 kts | 272° |
| 2026-05-07 14:55 | 33.63177 | -84.32342 | 2570 ft | 136 kts | 272° |
| 2026-05-07 14:55 | 33.63178 | -84.33489 | 2387 ft | 138 kts | 272° |
| 2026-05-07 14:55 | 33.63179 | -84.34637 | 2198 ft | 140 kts | 275° |
| 2026-05-07 14:56 | 33.63180 | -84.35808 | 2017 ft | 140 kts | 275° |
| 2026-05-07 14:56 | 33.63181 | -84.36966 | 1841 ft | 141 kts | 274° |
| 2026-05-07 14:56 | 33.63181 | -84.38139 | 1653 ft | 142 kts | 274° |
| 2026-05-07 14:56 | 33.63181 | -84.39289 | 1471 ft | 140 kts | 272° |
| 2026-05-07 14:57 | 33.63184 | -84.40454 | 1306 ft | 139 kts | 271° |
| 2026-05-07 14:57 | 33.63179 | -84.41606 | 1103 ft | 137 kts | 272° |
| 2026-05-07 14:57 | 33.63185 | -84.42721 | 1008 ft | 124 kts | 270° |
| 2026-05-07 14:57 | 33.63184 | -84.43465 | 1008 ft | 50 kts | 271° |
| 2026-05-07 14:58 | 33.63185 | -84.43576 | 1008 ft | 0 kts | 269° |
| 2026-05-07 14:58 | 33.63183 | -84.43642 | 1007 ft | 19 kts | 268° |
| 2026-05-07 14:58 | 33.63178 | -84.43882 | 1004 ft | 36 kts | 272° |
| 2026-05-07 14:58 | 33.63211 | -84.44133 | 1005 ft | 21 kts | 289° |
| 2026-05-07 14:59 | 33.63280 | -84.44255 | 1006 ft | 15 kts | 330° |
| 2026-05-07 14:59 | 33.63348 | -84.44223 | 1006 ft | 9 kts | 62° |
| 2026-05-07 14:59 | 33.63356 | -84.44204 | 1006 ft | 2 kts | 54° |
| 2026-05-07 14:59 | 33.63446 | -84.44184 | 1006 ft | 17 kts | 358° |
| 2026-05-07 15:00 | 33.63563 | -84.44181 | 1007 ft | 12 kts | 28° |
| 2026-05-07 15:00 | 33.63582 | -84.44101 | 1007 ft | 10 kts | 87° |
| 2026-05-07 15:00 | 33.63582 | -84.43953 | 1007 ft | 24 kts | 92° |
| 2026-05-07 15:00 | 33.63574 | -84.43752 | 1007 ft | 22 kts | 93° |
| 2026-05-07 15:01 | 33.63581 | -84.43567 | 1006 ft | 23 kts | 89° |
| 2026-05-07 15:01 | 33.63578 | -84.43378 | 1006 ft | 17 kts | 92° |
| 2026-05-07 15:01 | 33.63577 | -84.43248 | 1006 ft | 17 kts | 90° |
| 2026-05-07 15:01 | 33.63596 | -84.43111 | 1006 ft | 17 kts | 46° |
| 2026-05-07 15:02 | 33.63694 | -84.43123 | 1006 ft | 17 kts | 326° |
| 2026-05-07 15:02 | 33.63806 | -84.43133 | 1006 ft | 15 kts | 342° |
| 2026-05-07 15:02 | 33.63828 | -84.43185 | 1006 ft | 6 kts | 274° |
| 2026-05-07 15:02 | 33.63829 | -84.43197 | 1006 ft | 0 kts | 274° |